createdAt,value
2023-06-13T00:01:08.310Z,96722.84
2023-06-13T00:03:38.607Z,96720.28
2023-06-13T00:06:08.393Z,96725.16
2023-06-13T00:08:36.468Z,96718.50
2023-06-13T00:11:06.281Z,96715.53
2023-06-13T00:13:36.622Z,96711.69
2023-06-13T00:16:03.825Z,96712.25
2023-06-13T00:18:33.775Z,96712.69
2023-06-13T00:21:00.891Z,96713.44
2023-06-13T00:23:28.702Z,96703.19
2023-06-13T00:25:55.824Z,96712.53
2023-06-13T00:28:22.913Z,96707.03
2023-06-13T00:30:50.004Z,96711.53
2023-06-13T00:33:17.742Z,96713.38
2023-06-13T00:35:47.828Z,96703.88
2023-06-13T00:38:14.896Z,96712.47
2023-06-13T00:40:42.025Z,96704.88
2023-06-13T00:43:09.614Z,96703.13
2023-06-13T00:45:36.918Z,96701.06
2023-06-13T00:48:09.004Z,96702.78
2023-06-13T00:50:41.651Z,96703.25
2023-06-13T00:53:19.223Z,96705.81
2023-06-13T00:55:47.822Z,96693.75
2023-06-13T00:58:16.347Z,96697.78
2023-06-13T01:00:47.104Z,96696.03
2023-06-13T01:03:17.258Z,96693.22
2023-06-13T01:05:45.539Z,96696.03
2023-06-13T01:08:18.845Z,96692.91
2023-06-13T01:10:53.988Z,96700.84
2023-06-13T01:13:41.080Z,96690.25
2023-06-13T01:16:30.719Z,96692.09
2023-06-13T01:18:59.985Z,96693.91
2023-06-13T01:21:28.296Z,96690.44
2023-06-13T01:24:11.365Z,96685.69
2023-06-13T01:27:00.770Z,96681.22
2023-06-13T01:29:29.876Z,96682.03
2023-06-13T01:32:00.805Z,96684.03
2023-06-13T01:34:28.201Z,96685.88
2023-06-13T01:36:55.552Z,96681.22
2023-06-13T01:39:22.628Z,96678.72
2023-06-13T01:41:49.553Z,96677.75
2023-06-13T01:44:21.639Z,96678.38
2023-06-13T01:47:08.762Z,96679.38
2023-06-13T01:49:38.544Z,96688.16
2023-06-13T01:52:24.599Z,96684.69
2023-06-13T01:54:59.040Z,96678.38
2023-06-13T01:57:32.575Z,96681.00
2023-06-13T02:00:01.627Z,96685.88
2023-06-13T02:02:29.358Z,96678.91
2023-06-13T02:04:56.111Z,96693.38
2023-06-13T02:07:24.448Z,96681.03
2023-06-13T02:09:51.229Z,96688.06
2023-06-13T02:12:18.329Z,96685.25
2023-06-13T02:14:47.784Z,96687.69
2023-06-13T02:17:14.877Z,96679.75
2023-06-13T02:19:41.842Z,96679.13
2023-06-13T02:22:08.618Z,96677.75
2023-06-13T02:24:37.142Z,96683.78
2023-06-13T02:27:04.458Z,96681.34
2023-06-13T02:29:32.768Z,96675.91
2023-06-13T02:32:00.056Z,96677.53
2023-06-13T02:34:27.235Z,96681.00
2023-06-13T02:36:54.022Z,96691.25
2023-06-13T02:39:20.966Z,96694.41
2023-06-13T02:41:47.970Z,96689.19
2023-06-13T02:44:14.878Z,96693.75
2023-06-13T02:46:41.925Z,96699.31
2023-06-13T02:49:09.002Z,96686.06
2023-06-13T02:51:36.245Z,96694.66
2023-06-13T02:54:03.300Z,96697.31
2023-06-13T02:56:30.394Z,96710.59
2023-06-13T02:58:57.267Z,96712.78
2023-06-13T03:01:27.961Z,96707.34
2023-06-13T03:03:54.833Z,96705.06
2023-06-13T03:06:21.990Z,96707.47
2023-06-13T03:08:50.157Z,96704.16
2023-06-13T03:11:17.119Z,96699.09
2023-06-13T03:13:44.514Z,96714.19
2023-06-13T03:16:12.097Z,96710.53
2023-06-13T03:18:39.011Z,96706.50
2023-06-13T03:21:08.553Z,96724.97
2023-06-13T03:23:35.539Z,96725.84
2023-06-13T03:26:04.321Z,96717.41
2023-06-13T03:28:31.405Z,96721.59
2023-06-13T03:30:58.796Z,96708.72
2023-06-13T03:33:25.974Z,96713.94
2023-06-13T03:35:55.568Z,96715.66
2023-06-13T03:38:24.329Z,96713.25
2023-06-13T03:40:51.988Z,96710.44
2023-06-13T03:43:30.051Z,96713.38
2023-06-13T03:45:58.332Z,96718.78
2023-06-13T03:48:28.839Z,96700.81
2023-06-13T03:50:55.792Z,96707.22
2023-06-13T03:53:22.660Z,96713.13
2023-06-13T03:55:50.159Z,96715.94
2023-06-13T03:58:17.246Z,96711.97
2023-06-13T04:00:45.801Z,96715.75
2023-06-13T04:03:13.248Z,96723.63
2023-06-13T04:05:40.229Z,96716.09
2023-06-13T04:08:08.636Z,96720.88
2023-06-13T04:10:36.324Z,96712.25
2023-06-13T04:13:03.155Z,96721.69
2023-06-13T04:15:31.490Z,96708.88
2023-06-13T04:17:58.563Z,96715.31
2023-06-13T04:20:25.717Z,96714.38
2023-06-13T04:22:53.506Z,96719.56
2023-06-13T04:25:20.519Z,96717.72
2023-06-13T04:27:49.815Z,96717.53
2023-06-13T04:30:17.285Z,96721.16
2023-06-13T04:32:47.121Z,96710.63
2023-06-13T04:35:19.226Z,96709.28
2023-06-13T04:37:47.872Z,96711.00
2023-06-13T04:40:15.098Z,96714.94
2023-06-13T04:42:55.160Z,96714.03
2023-06-13T04:45:22.949Z,96717.50
2023-06-13T04:47:56.606Z,96728.63
2023-06-13T04:50:26.711Z,96723.81
2023-06-13T04:52:55.857Z,96724.91
2023-06-13T04:55:24.410Z,96728.31
2023-06-13T04:57:51.915Z,96729.13
2023-06-13T05:00:20.379Z,96735.53
2023-06-13T05:02:47.503Z,96731.00
2023-06-13T05:05:18.054Z,96734.00
2023-06-13T05:07:45.732Z,96731.69
2023-06-13T05:10:17.417Z,96736.69
2023-06-13T05:12:45.502Z,96736.03
2023-06-13T05:15:12.346Z,96726.88
2023-06-13T05:17:40.278Z,96733.28
2023-06-13T05:20:08.015Z,96732.78
2023-06-13T05:22:34.831Z,96736.91
2023-06-13T05:25:02.244Z,96735.72
2023-06-13T05:27:29.049Z,96731.41
2023-06-13T05:29:55.933Z,96736.53
2023-06-13T05:32:24.475Z,96747.69
2023-06-13T05:34:51.321Z,96749.56
2023-06-13T05:37:21.290Z,96742.34
2023-06-13T05:39:48.154Z,96747.59
2023-06-13T05:42:14.909Z,96750.41
2023-06-13T05:44:44.865Z,96753.25
2023-06-13T05:47:11.828Z,96765.88
2023-06-13T05:49:38.612Z,96754.53
2023-06-13T05:52:06.061Z,96756.88
2023-06-13T05:54:33.875Z,96764.69
2023-06-13T05:57:02.252Z,96769.22
2023-06-13T05:59:29.104Z,96755.25
2023-06-13T06:01:56.057Z,96761.13
2023-06-13T06:04:23.477Z,96749.78
2023-06-13T06:06:50.182Z,96750.66
2023-06-13T06:09:17.754Z,96743.63
2023-06-13T06:11:47.012Z,96752.75
2023-06-13T06:14:14.257Z,96745.97
2023-06-13T06:16:41.100Z,96749.13
2023-06-13T06:19:08.235Z,96754.53
2023-06-13T06:21:35.261Z,96747.44
2023-06-13T06:24:03.436Z,96742.19
2023-06-13T06:26:30.597Z,96745.84
2023-06-13T06:28:57.549Z,96742.34
2023-06-13T06:31:25.424Z,96746.88
2023-06-13T06:33:52.312Z,96742.09
2023-06-13T06:36:19.275Z,96738.63
2023-06-13T06:38:46.072Z,96742.19
2023-06-13T06:41:12.802Z,96743.78
2023-06-13T06:43:39.522Z,96740.66
2023-06-13T06:46:10.792Z,96739.16
2023-06-13T06:48:38.124Z,96739.06
2023-06-13T06:51:05.055Z,96734.16
2023-06-13T06:53:31.828Z,96727.03
2023-06-13T06:55:58.582Z,96731.63
2023-06-13T06:58:25.288Z,96725.88
2023-06-13T07:00:53.866Z,96722.97
2023-06-13T07:03:21.053Z,96727.41
2023-06-13T07:05:48.736Z,96728.00
2023-06-13T07:08:15.662Z,96725.94
2023-06-13T07:10:42.541Z,96730.84
2023-06-13T07:13:09.429Z,96730.03
2023-06-13T07:15:37.110Z,96728.09
2023-06-13T07:18:06.499Z,96731.50
2023-06-13T07:20:33.504Z,96723.09
2023-06-13T07:23:00.240Z,96719.47
2023-06-13T07:25:29.049Z,96730.66
2023-06-13T07:27:55.880Z,96721.63
2023-06-13T07:30:22.687Z,96723.78
2023-06-13T07:32:49.854Z,96719.59
2023-06-13T07:35:17.609Z,96708.72
2023-06-13T07:37:44.423Z,96714.41
2023-06-13T07:40:12.025Z,96711.41
2023-06-13T07:42:39.021Z,96721.47
2023-06-13T07:45:06.498Z,96722.97
2023-06-13T07:47:33.305Z,96724.56
2023-06-13T07:50:00.464Z,96725.91
2023-06-13T07:52:27.234Z,96720.19
2023-06-13T07:54:54.134Z,96723.56
2023-06-13T07:57:39.766Z,96730.56
2023-06-13T08:00:16.264Z,96723.22
2023-06-13T08:02:47.011Z,96728.00
2023-06-13T08:05:16.018Z,96715.78
2023-06-13T08:07:43.470Z,96730.72
2023-06-13T08:10:13.322Z,96724.59
2023-06-13T08:12:41.164Z,96729.75
2023-06-13T08:15:08.742Z,96732.03
2023-06-13T08:17:37.940Z,96731.09
2023-06-13T08:20:06.265Z,96734.72
2023-06-13T08:22:33.281Z,96729.38
2023-06-13T08:25:00.270Z,96728.25
2023-06-13T08:27:27.021Z,96719.94
2023-06-13T08:29:53.770Z,96722.72
2023-06-13T08:32:21.392Z,96719.69
2023-06-13T08:34:49.308Z,96730.75
2023-06-13T08:37:15.986Z,96727.78
2023-06-13T08:39:43.451Z,96727.13
2023-06-13T08:42:11.867Z,96721.00
2023-06-13T08:44:39.697Z,96722.16
2023-06-13T08:47:07.103Z,96719.25
2023-06-13T08:49:34.773Z,96711.75
2023-06-13T08:52:04.428Z,96715.34
2023-06-13T08:54:39.379Z,96714.69
2023-06-13T08:57:19.690Z,96715.72
2023-06-13T08:59:49.654Z,96715.25
2023-06-13T09:02:27.178Z,96713.22
2023-06-13T09:04:58.448Z,96710.16
2023-06-13T09:07:28.026Z,96709.03
2023-06-13T09:10:00.656Z,96703.09
2023-06-13T09:12:28.185Z,96700.91
2023-06-13T09:14:55.018Z,96696.81
2023-06-13T09:17:22.244Z,96694.31
2023-06-13T09:19:49.636Z,96696.50
2023-06-13T09:22:19.196Z,96696.09
2023-06-13T09:24:47.598Z,96688.84
2023-06-13T09:27:15.374Z,96686.53
2023-06-13T09:29:42.097Z,96689.66
2023-06-13T09:32:12.348Z,96685.06
2023-06-13T09:34:39.734Z,96681.41
2023-06-13T09:37:09.144Z,96674.00
2023-06-13T09:39:55.480Z,96682.28
2023-06-13T09:42:25.823Z,96663.59
2023-06-13T09:47:42.760Z,96670.53
2023-06-13T09:50:10.207Z,96672.44
2023-06-13T09:52:37.361Z,96671.75
2023-06-13T09:55:04.420Z,96670.78
2023-06-13T09:58:01.299Z,96673.47
2023-06-13T10:00:21.623Z,96676.28
2023-06-13T10:02:48.468Z,96666.38
2023-06-13T10:05:18.332Z,96674.97
2023-06-13T10:07:45.227Z,96681.00
2023-06-13T10:10:12.093Z,96687.19
2023-06-13T10:12:45.329Z,96670.38
2023-06-13T10:15:17.070Z,96675.13
2023-06-13T10:17:46.711Z,96667.44
2023-06-13T10:20:19.344Z,96672.16
2023-06-13T10:22:50.039Z,96674.22
2023-06-13T10:25:20.616Z,96660.00
2023-06-13T10:27:52.185Z,96672.81
2023-06-13T10:30:25.085Z,96678.16
2023-06-13T10:33:13.257Z,96676.50
2023-06-13T10:36:03.641Z,96679.88
2023-06-13T10:38:59.309Z,96683.66
2023-06-13T10:41:41.366Z,96681.59
2023-06-13T10:44:16.831Z,96676.72
2023-06-13T10:46:44.267Z,96676.66
2023-06-13T10:49:17.443Z,96677.09
2023-06-13T10:51:46.004Z,96677.34
2023-06-13T10:54:14.558Z,96677.66
2023-06-13T10:56:45.266Z,96674.84
2023-06-13T10:59:16.785Z,96668.31
2023-06-13T11:01:47.930Z,96667.03
2023-06-13T11:04:23.467Z,96663.91
2023-06-13T11:06:53.654Z,96672.84
2023-06-13T11:09:25.102Z,96679.66
2023-06-13T11:12:00.051Z,96673.47
2023-06-13T11:14:38.307Z,96671.59
2023-06-13T11:17:05.598Z,96670.53
2023-06-13T11:19:40.131Z,96667.91
2023-06-13T11:22:14.645Z,96657.16
2023-06-13T11:24:42.685Z,96655.69
2023-06-13T11:27:15.964Z,96656.16
2023-06-13T11:29:47.096Z,96647.31
2023-06-13T11:32:14.360Z,96659.53
2023-06-13T11:34:51.346Z,96661.22
2023-06-13T11:37:37.292Z,96654.06
2023-06-13T11:40:18.838Z,96655.19
2023-06-13T11:42:47.419Z,96658.38
2023-06-13T11:45:14.266Z,96654.69
2023-06-13T11:47:58.844Z,96662.53
2023-06-13T11:50:27.079Z,96652.41
2023-06-13T11:53:05.140Z,96654.38
2023-06-13T11:55:32.287Z,96653.06
2023-06-13T11:57:59.102Z,96653.63
2023-06-13T12:00:29.533Z,96655.66
2023-06-13T12:03:01.153Z,96659.28
2023-06-13T12:05:28.704Z,96653.63
2023-06-13T12:07:55.792Z,96643.69
2023-06-13T12:10:22.618Z,96648.34
2023-06-13T12:12:59.483Z,96643.97
2023-06-13T12:15:29.855Z,96642.06
2023-06-13T12:18:01.905Z,96644.00
2023-06-13T12:20:29.940Z,96649.69
2023-06-13T12:23:03.099Z,96637.69
2023-06-13T12:25:34.101Z,96635.09
2023-06-13T12:28:04.522Z,96640.97
2023-06-13T12:30:40.540Z,96641.97
2023-06-13T12:33:07.913Z,96635.94
2023-06-13T12:35:34.977Z,96634.78
2023-06-13T12:38:02.405Z,96633.22
2023-06-13T12:40:33.882Z,96634.50
2023-06-13T12:43:02.897Z,96634.81
2023-06-13T12:45:33.103Z,96635.94
2023-06-13T12:48:00.252Z,96633.31
2023-06-13T12:50:29.215Z,96636.94
2023-06-13T12:53:08.627Z,96644.00
2023-06-13T12:55:42.903Z,96646.09
2023-06-13T12:58:28.468Z,96645.63
2023-06-13T13:00:55.295Z,96641.63
2023-06-13T13:03:22.499Z,96645.59
2023-06-13T13:05:52.026Z,96652.41
2023-06-13T13:08:19.761Z,96649.97
2023-06-13T13:10:49.685Z,96654.53
2023-06-13T13:13:20.800Z,96656.63
2023-06-13T13:15:47.762Z,96655.00
2023-06-13T13:18:15.120Z,96655.28
2023-06-13T13:20:42.392Z,96645.66
2023-06-13T13:23:09.424Z,96664.28
2023-06-13T13:25:38.319Z,96662.56
2023-06-13T13:28:07.419Z,96657.56
2023-06-13T13:30:36.528Z,96667.66
2023-06-13T13:33:05.217Z,96674.53
2023-06-13T13:35:32.742Z,96672.56
2023-06-13T13:38:02.428Z,96678.28
2023-06-13T13:40:29.654Z,96681.69
2023-06-13T13:42:56.863Z,96678.88
2023-06-13T13:45:24.643Z,96677.34
2023-06-13T13:47:52.003Z,96679.56
2023-06-13T13:50:18.992Z,96677.44
2023-06-13T13:52:45.984Z,96682.72
2023-06-13T13:55:16.385Z,96682.13
2023-06-13T13:57:43.509Z,96688.09
2023-06-13T14:00:11.091Z,96682.13
2023-06-13T14:02:38.049Z,96690.06
2023-06-13T14:05:05.774Z,96684.25
2023-06-13T14:07:33.520Z,96697.34
2023-06-13T14:10:00.398Z,96691.72
2023-06-13T14:12:28.144Z,96699.06
2023-06-13T14:14:58.439Z,96703.13
2023-06-13T14:17:25.441Z,96706.56
2023-06-13T14:19:53.746Z,96713.66
2023-06-13T14:22:20.893Z,96709.38
2023-06-13T14:24:47.862Z,96711.81
2023-06-13T14:27:17.445Z,96707.91
2023-06-13T14:29:44.245Z,96708.56
2023-06-13T14:32:11.568Z,96704.69
2023-06-13T14:34:38.672Z,96701.81
2023-06-13T14:37:07.496Z,96703.47
2023-06-13T14:39:34.819Z,96708.03
2023-06-13T14:42:01.883Z,96707.19
2023-06-13T14:44:28.921Z,96697.09
2023-06-13T14:46:55.919Z,96702.94
2023-06-13T14:49:26.788Z,96695.97
2023-06-13T14:51:57.572Z,96711.53
2023-06-13T14:54:24.547Z,96703.94
2023-06-13T14:56:51.551Z,96697.16
2023-06-13T14:59:18.362Z,96705.34
2023-06-13T15:01:45.741Z,96704.22
2023-06-13T15:04:12.717Z,96703.78
2023-06-13T15:06:39.725Z,96705.34
2023-06-13T15:09:06.708Z,96709.88
2023-06-13T15:11:34.097Z,96707.03
2023-06-13T15:14:03.756Z,96707.03
2023-06-13T15:16:30.997Z,96703.78
2023-06-13T15:18:57.950Z,96710.34
2023-06-13T15:21:24.849Z,96716.22
2023-06-13T15:23:51.684Z,96708.44
2023-06-13T15:26:18.443Z,96718.31
2023-06-13T15:28:49.548Z,96726.41
2023-06-13T15:31:19.189Z,96725.81
2023-06-13T15:33:46.320Z,96731.63
2023-06-13T15:36:13.476Z,96725.44
2023-06-13T15:38:41.622Z,96728.94
2023-06-13T15:41:08.577Z,96730.13
2023-06-13T15:43:35.576Z,96734.75
2023-06-13T15:46:05.137Z,96741.81
2023-06-13T15:48:31.866Z,96741.66
2023-06-13T15:50:59.432Z,96751.19
2023-06-13T15:53:29.918Z,96750.16
2023-06-13T15:56:05.960Z,96749.78
2023-06-13T15:58:33.736Z,96749.06
2023-06-13T16:01:03.196Z,96753.50
2023-06-13T16:03:30.328Z,96751.19
2023-06-13T16:05:58.379Z,96754.91
2023-06-13T16:08:32.830Z,96771.06
2023-06-13T16:10:59.991Z,96777.22
2023-06-13T16:13:28.414Z,96764.88
2023-06-13T16:15:55.245Z,96768.59
2023-06-13T16:18:22.507Z,96767.03
2023-06-13T16:20:49.436Z,96769.16
2023-06-13T16:23:28.664Z,96765.56
2023-06-13T16:25:56.015Z,96767.25
2023-06-13T16:28:28.032Z,96768.16
2023-06-13T16:30:55.125Z,96769.41
2023-06-13T16:33:22.230Z,96776.44
2023-06-13T16:35:49.202Z,96783.69
2023-06-13T16:38:16.121Z,96787.44
2023-06-13T16:40:43.300Z,96791.38
2023-06-13T16:43:10.638Z,96800.44
2023-06-13T16:45:38.252Z,96796.09
2023-06-13T16:48:05.528Z,96795.53
2023-06-13T16:50:32.471Z,96798.19
2023-06-13T16:53:03.443Z,96796.53
2023-06-13T16:55:30.904Z,96786.88
2023-06-13T16:57:57.879Z,96787.31
2023-06-13T17:00:26.953Z,96782.63
2023-06-13T17:02:53.785Z,96787.34
2023-06-13T17:05:21.177Z,96783.03
2023-06-13T17:07:48.110Z,96779.19
2023-06-13T17:10:20.314Z,96788.41
2023-06-13T17:12:47.783Z,96787.22
2023-06-13T17:15:14.888Z,96789.03
2023-06-13T17:17:42.080Z,96773.84
2023-06-13T17:20:09.209Z,96778.59
2023-06-13T17:22:36.795Z,96781.28
2023-06-13T17:25:03.750Z,96783.56
2023-06-13T17:27:30.643Z,96784.19
2023-06-13T17:30:01.028Z,96792.19
2023-06-13T17:32:31.562Z,96789.97
2023-06-13T17:34:58.779Z,96791.22
2023-06-13T17:37:30.412Z,96787.13
2023-06-13T17:40:01.027Z,96797.81
2023-06-13T17:42:31.011Z,96792.53
2023-06-13T17:44:58.219Z,96786.19
2023-06-13T17:47:25.388Z,96778.00
2023-06-13T17:49:58.677Z,96792.16
2023-06-13T17:52:35.827Z,96787.88
2023-06-13T17:55:02.721Z,96788.69
2023-06-13T17:57:30.352Z,96786.66
2023-06-13T17:59:57.192Z,96788.53
2023-06-13T18:02:27.779Z,96795.94
2023-06-13T18:04:54.557Z,96792.25
2023-06-13T18:07:21.786Z,96796.16
2023-06-13T18:09:52.208Z,96796.56
2023-06-13T18:12:22.245Z,96800.91
2023-06-13T18:14:53.066Z,96798.66
2023-06-13T18:17:20.258Z,96803.19
2023-06-13T18:19:47.737Z,96811.59
2023-06-13T18:22:15.591Z,96815.69
2023-06-13T18:24:42.767Z,96815.50
2023-06-13T18:27:13.656Z,96815.25
2023-06-13T18:29:41.507Z,96821.66
2023-06-13T18:32:09.108Z,96817.34
2023-06-13T18:34:36.956Z,96830.69
2023-06-13T18:37:13.931Z,96834.38
2023-06-13T18:39:45.427Z,96831.53
2023-06-13T18:42:22.547Z,96834.19
2023-06-13T18:45:13.253Z,96824.56
2023-06-13T18:48:05.100Z,96846.13
2023-06-13T18:50:33.448Z,96853.75
2023-06-13T18:53:08.093Z,96859.09
2023-06-13T18:55:38.201Z,96852.72
2023-06-13T18:58:06.670Z,96859.69
2023-06-13T19:00:36.435Z,96862.16
2023-06-13T19:03:07.676Z,96863.16
2023-06-13T19:05:35.781Z,96864.00
2023-06-13T19:08:04.296Z,96860.31
2023-06-13T19:10:38.073Z,96866.66
2023-06-13T19:13:05.775Z,96865.88
2023-06-13T19:15:36.065Z,96875.09
2023-06-13T19:18:05.639Z,96878.41
2023-06-13T19:20:38.048Z,96869.09
2023-06-13T19:23:05.844Z,96877.72
2023-06-13T19:25:33.545Z,96884.34
2023-06-13T19:28:17.977Z,96885.56
2023-06-13T19:30:47.165Z,96891.88
2023-06-13T19:33:15.358Z,96889.25
2023-06-13T19:35:45.325Z,96893.31
2023-06-13T19:38:12.702Z,96899.91
2023-06-13T19:40:40.731Z,96895.78
2023-06-13T19:43:09.524Z,96900.31
2023-06-13T19:45:36.531Z,96914.25
2023-06-13T19:48:17.887Z,96910.38
2023-06-13T19:50:47.857Z,96904.41
2023-06-13T19:53:14.887Z,96906.47
2023-06-13T19:55:41.775Z,96913.25
2023-06-13T19:58:09.683Z,96916.09
2023-06-13T20:00:47.635Z,96912.00
2023-06-13T20:03:20.822Z,96909.34
2023-06-13T20:05:48.398Z,96920.22
2023-06-13T20:08:18.003Z,96904.00
2023-06-13T20:10:57.497Z,96901.94
2023-06-13T20:13:24.605Z,96906.03
2023-06-13T20:15:53.909Z,96911.78
2023-06-13T20:18:24.669Z,96915.06
2023-06-13T20:20:52.495Z,96917.94
2023-06-13T20:23:23.376Z,96921.19
2023-06-13T20:25:53.322Z,96915.44
2023-06-13T20:28:20.964Z,96918.09
2023-06-13T20:30:48.329Z,96922.00
2023-06-13T20:33:15.428Z,96925.09
2023-06-13T20:35:42.497Z,96925.25
2023-06-13T20:38:09.941Z,96917.06
2023-06-13T20:40:37.576Z,96912.97
2023-06-13T20:43:05.705Z,96921.97
2023-06-13T20:45:36.239Z,96919.09
2023-06-13T20:48:03.672Z,96922.19
2023-06-13T20:50:32.405Z,96927.50
2023-06-13T20:53:02.140Z,96921.16
2023-06-13T20:55:30.096Z,96924.84
2023-06-13T20:57:57.988Z,96926.47
2023-06-13T21:00:27.394Z,96919.50
2023-06-13T21:02:58.103Z,96931.81
2023-06-13T21:05:27.446Z,96935.50
2023-06-13T21:07:59.029Z,96937.53
2023-06-13T21:10:29.824Z,96944.50
2023-06-13T21:12:57.845Z,96939.59
2023-06-13T21:15:26.548Z,96941.47
2023-06-13T21:17:57.232Z,96939.22
2023-06-13T21:20:28.262Z,96943.72
2023-06-13T21:22:55.559Z,96941.28
2023-06-13T21:25:24.735Z,96945.75
2023-06-13T21:27:53.240Z,96933.25
2023-06-13T21:30:21.371Z,96934.66
2023-06-13T21:32:52.375Z,96941.63
2023-06-13T21:35:21.364Z,96937.47
2023-06-13T21:37:48.810Z,96930.25
2023-06-13T21:40:16.424Z,96939.06
2023-06-13T21:42:44.207Z,96938.03
2023-06-13T21:45:15.057Z,96939.72
2023-06-13T21:47:44.700Z,96930.69
2023-06-13T21:50:12.095Z,96934.16
2023-06-13T21:52:39.447Z,96935.63
2023-06-13T21:55:10.762Z,96932.56
2023-06-13T21:57:38.786Z,96936.66
2023-06-13T22:00:08.251Z,96929.66
2023-06-13T22:02:35.447Z,96938.03
2023-06-13T22:05:03.025Z,96930.88
2023-06-13T22:07:33.190Z,96930.03
2023-06-13T22:10:01.308Z,96926.94
2023-06-13T22:12:31.795Z,96924.47
2023-06-13T22:14:58.708Z,96934.13
2023-06-13T22:17:29.925Z,96928.16
2023-06-13T22:20:03.703Z,96928.56
2023-06-13T22:22:31.231Z,96930.81
2023-06-13T22:25:00.555Z,96920.97
2023-06-13T22:27:28.948Z,96924.66
2023-06-13T22:29:57.135Z,96935.53
2023-06-13T22:32:27.617Z,96923.81
2023-06-13T22:34:57.393Z,96925.09
2023-06-13T22:37:24.580Z,96927.78
2023-06-13T22:39:55.000Z,96925.75
2023-06-13T22:42:21.921Z,96924.31
2023-06-13T22:44:48.950Z,96929.03
2023-06-13T22:47:16.216Z,96922.69
2023-06-13T22:49:43.277Z,96922.81
2023-06-13T22:52:12.509Z,96921.56
2023-06-13T22:54:39.457Z,96923.59
2023-06-13T22:57:07.563Z,96922.78
2023-06-13T22:59:34.551Z,96931.19
2023-06-13T23:02:05.244Z,96929.31
2023-06-13T23:04:32.081Z,96932.56
2023-06-13T23:06:59.034Z,96937.66
2023-06-13T23:09:26.383Z,96939.94
2023-06-13T23:11:53.341Z,96933.38
2023-06-13T23:14:20.391Z,96929.06
2023-06-13T23:16:47.876Z,96926.16
2023-06-13T23:19:18.375Z,96932.50
2023-06-13T23:21:45.919Z,96932.72
2023-06-13T23:24:15.927Z,96933.91
2023-06-13T23:26:43.509Z,96934.72
2023-06-13T23:29:11.637Z,96940.94
2023-06-13T23:31:40.549Z,96933.50
2023-06-13T23:34:09.207Z,96927.66
2023-06-13T23:36:38.603Z,96926.63
2023-06-13T23:39:07.761Z,96922.34
2023-06-13T23:41:40.596Z,96926.69
2023-06-13T23:44:08.390Z,96917.00
2023-06-13T23:46:41.425Z,96918.59
2023-06-13T23:49:08.698Z,96917.72
2023-06-13T23:51:36.716Z,96920.16
2023-06-13T23:54:04.412Z,96908.97
2023-06-13T23:56:31.479Z,96913.66
2023-06-13T23:58:58.428Z,96915.25
